MiSS Monie — WCZ9166 — position and weather

sailwx.info

Track history (hours):
 
Tides and Currents Weather Stations Pressure Air Temp Water Temp Dewpoint Dewpoint Depression Visibility Wind Speed Wind Dir Waves Ship Positions

MiSS Monie

Owner: MISS MONIE TOWING LLC, HULL, TX. More information available from US FCC via Universal Licensing System and Coast Guard Vessel Documentation Center.

Last reported at 2017-Sep-21 16:15 UTC. Time now 2017-Sep-22 04:40 UTC.
Position N 29°43' W 095°15'.

Length 20 m.

Type: Ship. MMSI: 366962010.

Date/timePositionNaut miles runAvg speedWind from/ knotsBaromVisibWave heightAir tempDewpointWater temp
2017-Sep-21 16:15N 29°43' W 095°15'1 0.0
2017-Sep-20 00:46N 29°43' W 095°16'  
2017-Sep-15 09:30N 29°45' W 095°10'3 3.7
2017-Sep-15 08:47N 29°44' W 095°07'3 0.3
2017-Sep-15 00:21N 29°46' W 095°05'5 1.3
2017-Sep-14 20:34N 29°45' W 095°10'0 6.1
2017-Sep-14 20:30N 29°45' W 095°10'5 0.8
2017-Sep-14 13:54N 29°45' W 095°04'3 3.9
2017-Sep-14 13:15N 29°44' W 095°01'1 4.7
2017-Sep-14 13:00N 29°42' W 095°01'2 3.7
2017-Sep-14 12:29N 29°43' W 095°03'0 0.0
2017-Sep-13 23:25N 29°43' W 095°03'2 3.6
2017-Sep-13 22:55N 29°42' W 095°01'2 4.3
2017-Sep-13 22:27N 29°44' W 095°03'2 0.7
2017-Sep-13 20:13N 29°45' W 095°04'3 6.4
2017-Sep-13 19:47N 29°43' W 095°01'2 5.9
2017-Sep-13 19:25N 29°42' W 094°60'5 6.5
2017-Sep-13 18:39N 29°37' W 094°57'1 6.8
2017-Sep-13 18:30N 29°36' W 094°57'9 4.9
2017-Sep-13 16:42N 29°28' W 094°54'1 5.8
2017-Sep-13 16:30N 29°27' W 094°55'3 4.9
2017-Sep-13 15:59N 29°28' W 094°58'0 0.6
2017-Sep-13 15:12N 29°28' W 094°58'0 2.6
2017-Sep-13 15:00N 29°28' W 094°57'5 3.7
2017-Sep-13 13:43N 29°30' W 094°52'2 7.5
2017-Sep-13 13:24N 29°32' W 094°54'3 7.3
2017-Sep-13 13:00N 29°34' W 094°55'4 7.2
2017-Sep-13 12:30N 29°37' W 094°58'4 7.3
2017-Sep-13 12:00N 29°41' W 094°59'4 6.8
2017-Sep-13 11:21N 29°44' W 095°02'4 0.2
2017-Sep-12 13:09N 29°46' W 095°06'0 0.0
2017-Sep-12 12:49N 29°46' W 095°06'1 0.7
2017-Sep-12 11:35N 29°46' W 095°05'1 6.3
2017-Sep-12 11:30N 29°45' W 095°06'0 0.2
2017-Sep-12 10:42N 29°45' W 095°06'1 4.5
2017-Sep-12 10:25N 29°44' W 095°07'3 4.5
2017-Sep-12 09:46N 29°45' W 095°10'0 0.0
2017-Sep-12 09:27N 29°45' W 095°10'0 0.0
2017-Sep-12 08:55N 29°45' W 095°10'0 0.0
2017-Sep-12 08:25N 29°45' W 095°10'0 0.0
2017-Sep-12 07:21N 29°45' W 095°10'0 0.0
2017-Sep-12 05:41N 29°45' W 095°10'0 0.0
2017-Sep-12 05:11N 29°45' W 095°10'0 0.0
2017-Sep-12 05:00N 29°45' W 095°10'0 0.0
2017-Sep-12 04:26N 29°45' W 095°10'0 0.0
2017-Sep-12 03:59N 29°45' W 095°10'0 0.0
2017-Sep-12 03:27N 29°45' W 095°10'0 0.0
2017-Sep-12 02:59N 29°45' W 095°10'0 0.0
2017-Sep-11 21:53N 29°45' W 095°10'  
Track history (hours):
 
Tides and Currents Weather Stations Pressure Air Temp Water Temp Dewpoint Dewpoint Depression Visibility Wind Speed Wind Dir Waves Ship Positions

MiSS Monie

Owner: MISS MONIE TOWING LLC, HULL, TX. More information available from US FCC via Universal Licensing System and Coast Guard Vessel Documentation Center.

Last reported at 2017-Sep-21 16:15 UTC. Time now 2017-Sep-22 04:40 UTC.
Position N 29°43' W 095°15'.

Length 20 m.

Type: Ship. MMSI: 366962010.

Date/timePositionNaut miles runAvg speedWind from/ knotsBaromVisibWave heightAir tempDewpointWater temp
2017-Sep-21 16:15N 29°43' W 095°15'1 0.0
2017-Sep-20 00:46N 29°43' W 095°16'  
2017-Sep-15 09:30N 29°45' W 095°10'3 3.7
2017-Sep-15 08:47N 29°44' W 095°07'3 0.3
2017-Sep-15 00:21N 29°46' W 095°05'5 1.3
2017-Sep-14 20:34N 29°45' W 095°10'0 6.1
2017-Sep-14 20:30N 29°45' W 095°10'5 0.8
2017-Sep-14 13:54N 29°45' W 095°04'3 3.9
2017-Sep-14 13:15N 29°44' W 095°01'1 4.7
2017-Sep-14 13:00N 29°42' W 095°01'2 3.7
2017-Sep-14 12:29N 29°43' W 095°03'0 0.0
2017-Sep-13 23:25N 29°43' W 095°03'2 3.6
2017-Sep-13 22:55N 29°42' W 095°01'2 4.3
2017-Sep-13 22:27N 29°44' W 095°03'2 0.7
2017-Sep-13 20:13N 29°45' W 095°04'3 6.4
2017-Sep-13 19:47N 29°43' W 095°01'2 5.9
2017-Sep-13 19:25N 29°42' W 094°60'5 6.5
2017-Sep-13 18:39N 29°37' W 094°57'1 6.8
2017-Sep-13 18:30N 29°36' W 094°57'9 4.9
2017-Sep-13 16:42N 29°28' W 094°54'1 5.8
2017-Sep-13 16:30N 29°27' W 094°55'3 4.9
2017-Sep-13 15:59N 29°28' W 094°58'0 0.6
2017-Sep-13 15:12N 29°28' W 094°58'0 2.6
2017-Sep-13 15:00N 29°28' W 094°57'5 3.7
2017-Sep-13 13:43N 29°30' W 094°52'2 7.5
2017-Sep-13 13:24N 29°32' W 094°54'3 7.3
2017-Sep-13 13:00N 29°34' W 094°55'4 7.2
2017-Sep-13 12:30N 29°37' W 094°58'4 7.3
2017-Sep-13 12:00N 29°41' W 094°59'4 6.8
2017-Sep-13 11:21N 29°44' W 095°02'4 0.2
2017-Sep-12 13:09N 29°46' W 095°06'0 0.0
2017-Sep-12 12:49N 29°46' W 095°06'1 0.7
2017-Sep-12 11:35N 29°46' W 095°05'1 6.3
2017-Sep-12 11:30N 29°45' W 095°06'0 0.2
2017-Sep-12 10:42N 29°45' W 095°06'1 4.5
2017-Sep-12 10:25N 29°44' W 095°07'3 4.5
2017-Sep-12 09:46N 29°45' W 095°10'0 0.0
2017-Sep-12 09:27N 29°45' W 095°10'0 0.0
2017-Sep-12 08:55N 29°45' W 095°10'0 0.0
2017-Sep-12 08:25N 29°45' W 095°10'0 0.0
2017-Sep-12 07:21N 29°45' W 095°10'0 0.0
2017-Sep-12 05:41N 29°45' W 095°10'0 0.0
2017-Sep-12 05:11N 29°45' W 095°10'0 0.0
2017-Sep-12 05:00N 29°45' W 095°10'0 0.0
2017-Sep-12 04:26N 29°45' W 095°10'0 0.0
2017-Sep-12 03:59N 29°45' W 095°10'0 0.0
2017-Sep-12 03:27N 29°45' W 095°10'0 0.0
2017-Sep-12 02:59N 29°45' W 095°10'0 0.0
2017-Sep-11 21:53N 29°45' W 095°10'  

Dump ship's entire track history